sensor_id;sensor_type;location;lat;lon;timestamp;P1;durP1;ratioP1;P2;durP2;ratioP2
12476;SDS011;6303;51.504;6.300;2023-04-24T00:00:23;0.63;;;0.60;;
12476;SDS011;6303;51.504;6.300;2023-04-24T00:02:50;0.70;;;0.70;;
12476;SDS011;6303;51.504;6.300;2023-04-24T00:05:17;0.60;;;0.60;;
12476;SDS011;6303;51.504;6.300;2023-04-24T00:07:45;0.60;;;0.60;;
12476;SDS011;6303;51.504;6.300;2023-04-24T00:10:12;0.70;;;0.70;;
12476;SDS011;6303;51.504;6.300;2023-04-24T00:12:39;0.80;;;0.80;;
12476;SDS011;6303;51.504;6.300;2023-04-24T00:15:06;0.73;;;0.73;;
12476;SDS011;6303;51.504;6.300;2023-04-24T00:17:35;0.95;;;0.95;;
12476;SDS011;6303;51.504;6.300;2023-04-24T00:20:03;0.75;;;0.75;;
12476;SDS011;6303;51.504;6.300;2023-04-24T00:22:32;0.70;;;0.70;;
12476;SDS011;6303;51.504;6.300;2023-04-24T00:24:59;0.80;;;0.80;;
12476;SDS011;6303;51.504;6.300;2023-04-24T00:27:26;0.90;;;0.90;;
12476;SDS011;6303;51.504;6.300;2023-04-24T00:29:53;0.77;;;0.77;;
12476;SDS011;6303;51.504;6.300;2023-04-24T00:32:20;0.70;;;0.70;;
12476;SDS011;6303;51.504;6.300;2023-04-24T00:34:49;0.88;;;0.80;;
12476;SDS011;6303;51.504;6.300;2023-04-24T00:37:16;0.80;;;0.80;;
12476;SDS011;6303;51.504;6.300;2023-04-24T00:39:43;1.05;;;0.90;;
12476;SDS011;6303;51.504;6.300;2023-04-24T00:42:10;0.80;;;0.80;;
12476;SDS011;6303;51.504;6.300;2023-04-24T00:44:38;1.33;;;0.80;;
12476;SDS011;6303;51.504;6.300;2023-04-24T00:47:05;0.77;;;0.77;;
12476;SDS011;6303;51.504;6.300;2023-04-24T00:49:33;0.90;;;0.90;;
12476;SDS011;6303;51.504;6.300;2023-04-24T00:52:01;0.70;;;0.70;;
12476;SDS011;6303;51.504;6.300;2023-04-24T00:54:32;0.80;;;0.80;;
12476;SDS011;6303;51.504;6.300;2023-04-24T00:56:59;0.80;;;0.80;;
12476;SDS011;6303;51.504;6.300;2023-04-24T00:59:27;0.80;;;0.80;;
12476;SDS011;6303;51.504;6.300;2023-04-24T01:01:54;1.27;;;0.93;;
12476;SDS011;6303;51.504;6.300;2023-04-24T01:04:22;0.90;;;0.90;;
12476;SDS011;6303;51.504;6.300;2023-04-24T01:06:49;1.50;;;0.88;;
12476;SDS011;6303;51.504;6.300;2023-04-24T01:09:18;1.00;;;0.88;;
12476;SDS011;6303;51.504;6.300;2023-04-24T01:11:47;0.85;;;0.85;;
12476;SDS011;6303;51.504;6.300;2023-04-24T01:14:14;1.08;;;1.00;;
12476;SDS011;6303;51.504;6.300;2023-04-24T01:16:42;0.93;;;0.93;;
12476;SDS011;6303;51.504;6.300;2023-04-24T01:19:10;0.90;;;0.90;;
12476;SDS011;6303;51.504;6.300;2023-04-24T01:21:37;0.90;;;0.90;;
12476;SDS011;6303;51.504;6.300;2023-04-24T01:24:06;0.80;;;0.80;;
12476;SDS011;6303;51.504;6.300;2023-04-24T01:26:33;1.05;;;1.00;;
12476;SDS011;6303;51.504;6.300;2023-04-24T01:29:00;1.00;;;1.00;;
12476;SDS011;6303;51.504;6.300;2023-04-24T01:31:28;0.93;;;0.90;;
12476;SDS011;6303;51.504;6.300;2023-04-24T01:33:59;0.90;;;0.90;;
12476;SDS011;6303;51.504;6.300;2023-04-24T01:36:41;1.00;;;1.00;;
12476;SDS011;6303;51.504;6.300;2023-04-24T01:39:11;1.30;;;1.20;;
12476;SDS011;6303;51.504;6.300;2023-04-24T01:41:38;0.85;;;0.85;;
12476;SDS011;6303;51.504;6.300;2023-04-24T01:44:05;1.08;;;1.05;;
12476;SDS011;6303;51.504;6.300;2023-04-24T01:46:32;1.10;;;1.10;;
12476;SDS011;6303;51.504;6.300;2023-04-24T01:49:03;1.15;;;1.02;;
12476;SDS011;6303;51.504;6.300;2023-04-24T01:51:30;0.90;;;0.90;;
12476;SDS011;6303;51.504;6.300;2023-04-24T01:53:57;1.10;;;1.10;;
12476;SDS011;6303;51.504;6.300;2023-04-24T01:56:25;1.00;;;1.00;;
12476;SDS011;6303;51.504;6.300;2023-04-24T01:58:55;1.00;;;1.00;;
12476;SDS011;6303;51.504;6.300;2023-04-24T02:01:23;1.00;;;1.00;;
12476;SDS011;6303;51.504;6.300;2023-04-24T02:03:50;1.17;;;1.08;;
12476;SDS011;6303;51.504;6.300;2023-04-24T02:06:18;1.42;;;1.33;;
12476;SDS011;6303;51.504;6.300;2023-04-24T02:08:45;1.55;;;1.30;;
12476;SDS011;6303;51.504;6.300;2023-04-24T02:11:12;1.15;;;1.15;;
12476;SDS011;6303;51.504;6.300;2023-04-24T02:13:40;1.40;;;1.30;;
12476;SDS011;6303;51.504;6.300;2023-04-24T02:16:07;1.50;;;1.40;;
12476;SDS011;6303;51.504;6.300;2023-04-24T02:18:34;1.25;;;1.17;;
12476;SDS011;6303;51.504;6.300;2023-04-24T02:21:01;1.08;;;1.00;;
12476;SDS011;6303;51.504;6.300;2023-04-24T02:23:28;1.33;;;1.23;;
12476;SDS011;6303;51.504;6.300;2023-04-24T02:25:55;1.58;;;1.48;;
12476;SDS011;6303;51.504;6.300;2023-04-24T02:28:23;1.17;;;1.13;;
12476;SDS011;6303;51.504;6.300;2023-04-24T02:30:52;1.95;;;1.27;;
12476;SDS011;6303;51.504;6.300;2023-04-24T02:33:21;1.60;;;1.50;;
12476;SDS011;6303;51.504;6.300;2023-04-24T02:35:48;1.60;;;1.50;;
12476;SDS011;6303;51.504;6.300;2023-04-24T02:38:15;1.80;;;1.58;;
12476;SDS011;6303;51.504;6.300;2023-04-24T02:40:42;1.67;;;1.30;;
12476;SDS011;6303;51.504;6.300;2023-04-24T02:43:09;1.73;;;1.40;;
12476;SDS011;6303;51.504;6.300;2023-04-24T02:45:36;1.73;;;1.38;;
12476;SDS011;6303;51.504;6.300;2023-04-24T02:48:05;1.42;;;1.33;;
12476;SDS011;6303;51.504;6.300;2023-04-24T02:50:32;2.45;;;1.60;;
12476;SDS011;6303;51.504;6.300;2023-04-24T02:52:59;1.50;;;1.40;;
12476;SDS011;6303;51.504;6.300;2023-04-24T02:55:26;1.40;;;1.30;;
12476;SDS011;6303;51.504;6.300;2023-04-24T02:57:53;1.40;;;1.30;;
12476;SDS011;6303;51.504;6.300;2023-04-24T03:00:20;1.30;;;1.30;;
12476;SDS011;6303;51.504;6.300;2023-04-24T03:02:47;1.50;;;1.40;;
12476;SDS011;6303;51.504;6.300;2023-04-24T03:05:16;1.40;;;1.30;;
12476;SDS011;6303;51.504;6.300;2023-04-24T03:07:43;2.45;;;1.55;;
12476;SDS011;6303;51.504;6.300;2023-04-24T03:10:10;1.60;;;1.48;;
12476;SDS011;6303;51.504;6.300;2023-04-24T03:12:37;1.60;;;1.50;;
12476;SDS011;6303;51.504;6.300;2023-04-24T03:15:05;1.95;;;1.38;;
12476;SDS011;6303;51.504;6.300;2023-04-24T03:17:36;1.45;;;1.35;;
12476;SDS011;6303;51.504;6.300;2023-04-24T03:20:03;1.85;;;1.75;;
12476;SDS011;6303;51.504;6.300;2023-04-24T03:22:33;1.67;;;1.58;;
12476;SDS011;6303;51.504;6.300;2023-04-24T03:25:02;1.80;;;1.70;;
12476;SDS011;6303;51.504;6.300;2023-04-24T03:27:30;1.58;;;1.48;;
12476;SDS011;6303;51.504;6.300;2023-04-24T03:30:04;1.70;;;1.60;;
12476;SDS011;6303;51.504;6.300;2023-04-24T03:32:53;1.50;;;1.40;;
12476;SDS011;6303;51.504;6.300;2023-04-24T03:35:25;1.67;;;1.58;;
12476;SDS011;6303;51.504;6.300;2023-04-24T03:37:54;2.42;;;1.83;;
12476;SDS011;6303;51.504;6.300;2023-04-24T03:40:44;1.73;;;1.63;;
12476;SDS011;6303;51.504;6.300;2023-04-24T03:43:29;2.42;;;1.70;;
12476;SDS011;6303;51.504;6.300;2023-04-24T03:45:59;1.65;;;1.55;;
12476;SDS011;6303;51.504;6.300;2023-04-24T03:48:27;1.60;;;1.50;;
12476;SDS011;6303;51.504;6.300;2023-04-24T03:50:54;1.95;;;1.50;;
12476;SDS011;6303;51.504;6.300;2023-04-24T03:53:23;2.03;;;1.50;;
12476;SDS011;6303;51.504;6.300;2023-04-24T03:55:50;1.83;;;1.70;;
12476;SDS011;6303;51.504;6.300;2023-04-24T03:58:17;1.73;;;1.63;;
12476;SDS011;6303;51.504;6.300;2023-04-24T04:00:44;1.60;;;1.50;;
12476;SDS011;6303;51.504;6.300;2023-04-24T04:03:36;1.70;;;1.60;;
12476;SDS011;6303;51.504;6.300;2023-04-24T04:06:03;1.70;;;1.60;;
12476;SDS011;6303;51.504;6.300;2023-04-24T04:08:32;1.70;;;1.60;;
12476;SDS011;6303;51.504;6.300;2023-04-24T04:10:59;1.70;;;1.60;;
12476;SDS011;6303;51.504;6.300;2023-04-24T04:13:26;1.70;;;1.60;;
12476;SDS011;6303;51.504;6.300;2023-04-24T04:15:53;2.00;;;1.90;;
12476;SDS011;6303;51.504;6.300;2023-04-24T04:18:20;1.70;;;1.60;;
12476;SDS011;6303;51.504;6.300;2023-04-24T04:20:47;1.70;;;1.60;;
12476;SDS011;6303;51.504;6.300;2023-04-24T04:23:15;2.05;;;1.42;;
12476;SDS011;6303;51.504;6.300;2023-04-24T04:25:53;2.30;;;1.83;;
12476;SDS011;6303;51.504;6.300;2023-04-24T04:28:25;1.50;;;1.40;;
12476;SDS011;6303;51.504;6.300;2023-04-24T04:30:52;1.80;;;1.63;;
12476;SDS011;6303;51.504;6.300;2023-04-24T04:33:22;1.50;;;1.40;;
12476;SDS011;6303;51.504;6.300;2023-04-24T04:35:49;1.80;;;1.70;;
12476;SDS011;6303;51.504;6.300;2023-04-24T04:38:18;1.67;;;1.58;;
12476;SDS011;6303;51.504;6.300;2023-04-24T04:40:54;2.13;;;1.70;;
12476;SDS011;6303;51.504;6.300;2023-04-24T04:43:22;1.80;;;1.70;;
12476;SDS011;6303;51.504;6.300;2023-04-24T04:45:51;3.78;;;1.55;;
12476;SDS011;6303;51.504;6.300;2023-04-24T04:48:38;1.90;;;1.75;;
12476;SDS011;6303;51.504;6.300;2023-04-24T04:51:06;2.85;;;1.80;;
12476;SDS011;6303;51.504;6.300;2023-04-24T04:53:33;1.70;;;1.55;;
12476;SDS011;6303;51.504;6.300;2023-04-24T04:56:02;1.60;;;1.50;;
12476;SDS011;6303;51.504;6.300;2023-04-24T04:58:35;1.40;;;1.30;;
12476;SDS011;6303;51.504;6.300;2023-04-24T05:01:04;1.73;;;1.60;;
12476;SDS011;6303;51.504;6.300;2023-04-24T05:03:38;1.80;;;1.70;;
12476;SDS011;6303;51.504;6.300;2023-04-24T05:06:08;1.60;;;1.50;;
12476;SDS011;6303;51.504;6.300;2023-04-24T05:08:38;2.50;;;1.52;;
12476;SDS011;6303;51.504;6.300;2023-04-24T05:11:09;3.20;;;1.80;;
12476;SDS011;6303;51.504;6.300;2023-04-24T05:13:38;1.77;;;1.67;;
12476;SDS011;6303;51.504;6.300;2023-04-24T05:16:11;1.60;;;1.50;;
12476;SDS011;6303;51.504;6.300;2023-04-24T05:18:38;2.15;;;1.40;;
12476;SDS011;6303;51.504;6.300;2023-04-24T05:21:08;1.67;;;1.50;;
12476;SDS011;6303;51.504;6.300;2023-04-24T05:23:38;1.67;;;1.52;;
12476;SDS011;6303;51.504;6.300;2023-04-24T05:26:05;1.52;;;1.42;;
12476;SDS011;6303;51.504;6.300;2023-04-24T05:28:34;1.95;;;1.50;;
12476;SDS011;6303;51.504;6.300;2023-04-24T05:31:06;2.22;;;1.70;;
12476;SDS011;6303;51.504;6.300;2023-04-24T05:33:34;3.88;;;1.90;;
12476;SDS011;6303;51.504;6.300;2023-04-24T05:36:01;8.98;;;4.18;;
12476;SDS011;6303;51.504;6.300;2023-04-24T05:38:28;11.70;;;4.22;;
12476;SDS011;6303;51.504;6.300;2023-04-24T05:40:55;8.73;;;3.40;;
12476;SDS011;6303;51.504;6.300;2023-04-24T05:43:22;5.50;;;2.90;;
12476;SDS011;6303;51.504;6.300;2023-04-24T05:45:50;7.15;;;3.20;;
12476;SDS011;6303;51.504;6.300;2023-04-24T05:48:18;6.03;;;2.95;;
12476;SDS011;6303;51.504;6.300;2023-04-24T05:50:47;6.22;;;3.05;;
12476;SDS011;6303;51.504;6.300;2023-04-24T05:53:14;5.20;;;3.08;;
12476;SDS011;6303;51.504;6.300;2023-04-24T05:55:42;6.60;;;2.78;;
12476;SDS011;6303;51.504;6.300;2023-04-24T05:58:09;7.03;;;2.60;;
12476;SDS011;6303;51.504;6.300;2023-04-24T06:00:37;5.57;;;2.67;;
12476;SDS011;6303;51.504;6.300;2023-04-24T06:03:09;6.18;;;2.53;;
12476;SDS011;6303;51.504;6.300;2023-04-24T06:05:36;4.60;;;2.20;;
12476;SDS011;6303;51.504;6.300;2023-04-24T06:08:03;5.05;;;2.38;;
12476;SDS011;6303;51.504;6.300;2023-04-24T06:10:35;5.10;;;2.70;;
12476;SDS011;6303;51.504;6.300;2023-04-24T06:13:03;3.55;;;2.30;;
12476;SDS011;6303;51.504;6.300;2023-04-24T06:15:32;3.92;;;2.50;;
12476;SDS011;6303;51.504;6.300;2023-04-24T06:18:05;3.20;;;2.65;;
12476;SDS011;6303;51.504;6.300;2023-04-24T06:20:34;3.30;;;2.38;;
12476;SDS011;6303;51.504;6.300;2023-04-24T06:23:01;3.80;;;2.20;;
12476;SDS011;6303;51.504;6.300;2023-04-24T06:25:28;3.63;;;2.00;;
12476;SDS011;6303;51.504;6.300;2023-04-24T06:27:55;2.83;;;2.00;;
12476;SDS011;6303;51.504;6.300;2023-04-24T06:30:23;3.30;;;1.98;;
12476;SDS011;6303;51.504;6.300;2023-04-24T06:32:50;3.80;;;2.13;;
12476;SDS011;6303;51.504;6.300;2023-04-24T06:35:17;3.67;;;2.00;;
12476;SDS011;6303;51.504;6.300;2023-04-24T06:37:46;3.88;;;2.28;;
12476;SDS011;6303;51.504;6.300;2023-04-24T06:40:13;3.92;;;2.15;;
12476;SDS011;6303;51.504;6.300;2023-04-24T06:42:40;2.10;;;1.85;;
12476;SDS011;6303;51.504;6.300;2023-04-24T06:45:08;2.83;;;1.75;;
12476;SDS011;6303;51.504;6.300;2023-04-24T06:47:35;3.30;;;2.08;;
12476;SDS011;6303;51.504;6.300;2023-04-24T06:50:03;2.80;;;2.10;;
12476;SDS011;6303;51.504;6.300;2023-04-24T06:52:30;2.72;;;2.08;;
12476;SDS011;6303;51.504;6.300;2023-04-24T06:55:01;2.08;;;1.67;;
12476;SDS011;6303;51.504;6.300;2023-04-24T06:57:28;3.13;;;1.95;;
12476;SDS011;6303;51.504;6.300;2023-04-24T06:59:55;3.20;;;1.92;;
12476;SDS011;6303;51.504;6.300;2023-04-24T07:02:22;1.95;;;1.77;;
12476;SDS011;6303;51.504;6.300;2023-04-24T07:04:49;2.85;;;2.10;;
12476;SDS011;6303;51.504;6.300;2023-04-24T07:07:18;2.17;;;1.70;;
12476;SDS011;6303;51.504;6.300;2023-04-24T07:09:45;1.92;;;1.52;;
12476;SDS011;6303;51.504;6.300;2023-04-24T07:12:13;1.80;;;1.42;;
12476;SDS011;6303;51.504;6.300;2023-04-24T07:14:42;3.67;;;1.88;;
12476;SDS011;6303;51.504;6.300;2023-04-24T07:17:09;1.77;;;1.40;;
12476;SDS011;6303;51.504;6.300;2023-04-24T07:19:38;3.38;;;1.60;;
12476;SDS011;6303;51.504;6.300;2023-04-24T07:22:05;1.83;;;1.60;;
12476;SDS011;6303;51.504;6.300;2023-04-24T07:24:32;1.60;;;1.30;;
12476;SDS011;6303;51.504;6.300;2023-04-24T07:26:59;2.10;;;1.40;;
12476;SDS011;6303;51.504;6.300;2023-04-24T07:29:28;1.35;;;1.25;;
12476;SDS011;6303;51.504;6.300;2023-04-24T07:31:55;1.88;;;1.42;;
12476;SDS011;6303;51.504;6.300;2023-04-24T07:34:22;1.48;;;1.38;;
12476;SDS011;6303;51.504;6.300;2023-04-24T07:36:49;1.58;;;1.48;;
12476;SDS011;6303;51.504;6.300;2023-04-24T07:39:17;2.33;;;1.35;;
12476;SDS011;6303;51.504;6.300;2023-04-24T07:41:44;1.38;;;1.27;;
12476;SDS011;6303;51.504;6.300;2023-04-24T07:44:11;1.83;;;1.40;;
12476;SDS011;6303;51.504;6.300;2023-04-24T07:46:40;2.20;;;1.30;;
12476;SDS011;6303;51.504;6.300;2023-04-24T07:49:07;2.50;;;1.45;;
12476;SDS011;6303;51.504;6.300;2023-04-24T07:51:34;1.52;;;1.27;;
12476;SDS011;6303;51.504;6.300;2023-04-24T07:54:03;1.40;;;1.30;;
12476;SDS011;6303;51.504;6.300;2023-04-24T07:56:31;1.30;;;1.20;;
12476;SDS011;6303;51.504;6.300;2023-04-24T07:58:59;1.50;;;1.40;;
12476;SDS011;6303;51.504;6.300;2023-04-24T08:01:26;1.50;;;1.30;;
12476;SDS011;6303;51.504;6.300;2023-04-24T08:03:54;1.40;;;1.27;;
12476;SDS011;6303;51.504;6.300;2023-04-24T08:06:21;1.33;;;1.23;;
12476;SDS011;6303;51.504;6.300;2023-04-24T08:08:49;1.30;;;1.20;;
12476;SDS011;6303;51.504;6.300;2023-04-24T08:11:16;1.52;;;1.20;;
12476;SDS011;6303;51.504;6.300;2023-04-24T08:13:43;1.75;;;1.20;;
12476;SDS011;6303;51.504;6.300;2023-04-24T08:16:10;1.35;;;1.20;;
12476;SDS011;6303;51.504;6.300;2023-04-24T08:18:37;1.83;;;1.30;;
12476;SDS011;6303;51.504;6.300;2023-04-24T08:21:06;2.30;;;1.35;;
12476;SDS011;6303;51.504;6.300;2023-04-24T08:23:33;1.48;;;1.30;;
12476;SDS011;6303;51.504;6.300;2023-04-24T08:26:00;1.35;;;1.25;;
12476;SDS011;6303;51.504;6.300;2023-04-24T08:28:28;1.35;;;1.25;;
12476;SDS011;6303;51.504;6.300;2023-04-24T08:30:55;1.15;;;1.05;;
12476;SDS011;6303;51.504;6.300;2023-04-24T08:33:22;1.50;;;1.40;;
12476;SDS011;6303;51.504;6.300;2023-04-24T08:35:49;1.42;;;1.27;;
12476;SDS011;6303;51.504;6.300;2023-04-24T08:38:18;1.42;;;1.33;;
12476;SDS011;6303;51.504;6.300;2023-04-24T08:40:45;1.33;;;1.10;;
12476;SDS011;6303;51.504;6.300;2023-04-24T08:43:14;1.25;;;1.20;;
12476;SDS011;6303;51.504;6.300;2023-04-24T08:45:42;1.35;;;1.25;;
12476;SDS011;6303;51.504;6.300;2023-04-24T08:48:09;1.30;;;1.20;;
12476;SDS011;6303;51.504;6.300;2023-04-24T08:50:37;1.52;;;1.20;;
12476;SDS011;6303;51.504;6.300;2023-04-24T08:53:06;2.85;;;1.10;;
12476;SDS011;6303;51.504;6.300;2023-04-24T08:55:36;1.95;;;1.30;;
12476;SDS011;6303;51.504;6.300;2023-04-24T08:58:04;1.10;;;1.10;;
12476;SDS011;6303;51.504;6.300;2023-04-24T09:00:31;1.98;;;1.20;;
12476;SDS011;6303;51.504;6.300;2023-04-24T09:03:00;1.65;;;1.38;;
12476;SDS011;6303;51.504;6.300;2023-04-24T09:05:28;2.72;;;1.30;;
12476;SDS011;6303;51.504;6.300;2023-04-24T09:07:56;2.13;;;1.33;;
12476;SDS011;6303;51.504;6.300;2023-04-24T09:10:24;1.83;;;1.60;;
12476;SDS011;6303;51.504;6.300;2023-04-24T09:12:54;1.52;;;1.40;;
12476;SDS011;6303;51.504;6.300;2023-04-24T09:15:23;2.13;;;1.30;;
12476;SDS011;6303;51.504;6.300;2023-04-24T09:17:51;2.15;;;1.38;;
12476;SDS011;6303;51.504;6.300;2023-04-24T09:20:18;1.60;;;1.50;;
12476;SDS011;6303;51.504;6.300;2023-04-24T09:22:46;1.60;;;1.50;;
12476;SDS011;6303;51.504;6.300;2023-04-24T09:25:13;1.50;;;1.40;;
12476;SDS011;6303;51.504;6.300;2023-04-24T09:27:41;2.15;;;1.48;;
12476;SDS011;6303;51.504;6.300;2023-04-24T09:30:11;1.75;;;1.60;;
12476;SDS011;6303;51.504;6.300;2023-04-24T09:32:39;1.70;;;1.33;;
12476;SDS011;6303;51.504;6.300;2023-04-24T09:35:07;1.42;;;1.20;;
12476;SDS011;6303;51.504;6.300;2023-04-24T09:37:36;2.22;;;1.35;;
12476;SDS011;6303;51.504;6.300;2023-04-24T09:40:07;2.53;;;1.30;;
12476;SDS011;6303;51.504;6.300;2023-04-24T09:42:35;1.83;;;1.40;;
12476;SDS011;6303;51.504;6.300;2023-04-24T09:45:02;1.77;;;1.40;;
12476;SDS011;6303;51.504;6.300;2023-04-24T09:47:36;1.40;;;1.30;;
12476;SDS011;6303;51.504;6.300;2023-04-24T09:50:10;1.92;;;1.40;;
12476;SDS011;6303;51.504;6.300;2023-04-24T09:52:45;2.83;;;1.50;;
12476;SDS011;6303;51.504;6.300;2023-04-24T09:55:14;1.75;;;1.45;;
12476;SDS011;6303;51.504;6.300;2023-04-24T09:57:50;1.75;;;1.40;;
12476;SDS011;6303;51.504;6.300;2023-04-24T10:00:22;1.85;;;1.42;;
12476;SDS011;6303;51.504;6.300;2023-04-24T10:02:55;1.67;;;1.40;;
12476;SDS011;6303;51.504;6.300;2023-04-24T10:05:24;1.55;;;1.42;;
12476;SDS011;6303;51.504;6.300;2023-04-24T10:07:55;1.40;;;1.30;;
12476;SDS011;6303;51.504;6.300;2023-04-24T10:10:23;1.95;;;1.40;;
12476;SDS011;6303;51.504;6.300;2023-04-24T10:12:51;1.50;;;1.33;;
12476;SDS011;6303;51.504;6.300;2023-04-24T10:15:18;1.80;;;1.45;;
12476;SDS011;6303;51.504;6.300;2023-04-24T10:17:46;1.40;;;1.30;;
12476;SDS011;6303;51.504;6.300;2023-04-24T10:20:19;2.40;;;1.58;;
12476;SDS011;6303;51.504;6.300;2023-04-24T10:22:48;1.50;;;1.40;;
12476;SDS011;6303;51.504;6.300;2023-04-24T10:25:19;1.58;;;1.40;;
12476;SDS011;6303;51.504;6.300;2023-04-24T10:27:48;1.92;;;1.50;;
12476;SDS011;6303;51.504;6.300;2023-04-24T10:30:16;1.95;;;1.42;;
12476;SDS011;6303;51.504;6.300;2023-04-24T10:32:44;1.60;;;1.50;;
12476;SDS011;6303;51.504;6.300;2023-04-24T10:35:11;3.13;;;1.42;;
12476;SDS011;6303;51.504;6.300;2023-04-24T10:37:42;1.67;;;1.27;;
12476;SDS011;6303;51.504;6.300;2023-04-24T10:40:11;2.10;;;1.38;;
12476;SDS011;6303;51.504;6.300;2023-04-24T10:42:47;1.40;;;1.30;;
12476;SDS011;6303;51.504;6.300;2023-04-24T10:45:17;1.70;;;1.60;;
12476;SDS011;6303;51.504;6.300;2023-04-24T10:50:42;1.80;;;1.60;;
12476;SDS011;6303;51.504;6.300;2023-04-24T10:53:14;3.10;;;1.48;;
12476;SDS011;6303;51.504;6.300;2023-04-24T10:55:43;1.55;;;1.30;;
12476;SDS011;6303;51.504;6.300;2023-04-24T10:58:14;1.45;;;1.30;;
12476;SDS011;6303;51.504;6.300;2023-04-24T11:00:42;1.98;;;1.35;;
12476;SDS011;6303;51.504;6.300;2023-04-24T11:05:56;1.30;;;1.20;;
12476;SDS011;6303;51.504;6.300;2023-04-24T11:08:27;1.85;;;1.40;;
12476;SDS011;6303;51.504;6.300;2023-04-24T11:10:59;1.77;;;1.30;;
12476;SDS011;6303;51.504;6.300;2023-04-24T11:16:30;1.40;;;1.30;;
12476;SDS011;6303;51.504;6.300;2023-04-24T11:19:02;2.30;;;1.38;;
12476;SDS011;6303;51.504;6.300;2023-04-24T11:21:31;1.48;;;1.38;;
12476;SDS011;6303;51.504;6.300;2023-04-24T11:26:59;1.73;;;1.27;;
12476;SDS011;6303;51.504;6.300;2023-04-24T11:29:38;3.33;;;1.48;;
12476;SDS011;6303;51.504;6.300;2023-04-24T11:35:01;1.77;;;1.50;;
12476;SDS011;6303;51.504;6.300;2023-04-24T11:37:33;2.10;;;1.38;;
12476;SDS011;6303;51.504;6.300;2023-04-24T11:40:03;1.85;;;1.40;;
12476;SDS011;6303;51.504;6.300;2023-04-24T11:42:34;2.85;;;1.40;;
12476;SDS011;6303;51.504;6.300;2023-04-24T11:45:06;1.67;;;1.38;;
12476;SDS011;6303;51.504;6.300;2023-04-24T11:47:34;2.50;;;1.40;;
12476;SDS011;6303;51.504;6.300;2023-04-24T11:50:02;1.23;;;1.13;;
12476;SDS011;6303;51.504;6.300;2023-04-24T11:52:30;3.45;;;1.30;;
12476;SDS011;6303;51.504;6.300;2023-04-24T11:54:57;1.35;;;1.25;;
12476;SDS011;6303;51.504;6.300;2023-04-24T11:57:27;1.73;;;1.50;;
12476;SDS011;6303;51.504;6.300;2023-04-24T11:59:58;1.48;;;1.20;;
12476;SDS011;6303;51.504;6.300;2023-04-24T12:02:26;1.70;;;1.30;;
12476;SDS011;6303;51.504;6.300;2023-04-24T12:04:53;1.40;;;1.30;;
12476;SDS011;6303;51.504;6.300;2023-04-24T12:07:21;1.85;;;1.30;;
12476;SDS011;6303;51.504;6.300;2023-04-24T12:09:54;1.92;;;1.30;;
12476;SDS011;6303;51.504;6.300;2023-04-24T12:12:24;2.03;;;1.30;;
12476;SDS011;6303;51.504;6.300;2023-04-24T12:14:54;1.30;;;1.20;;
12476;SDS011;6303;51.504;6.300;2023-04-24T12:17:26;1.30;;;1.20;;
12476;SDS011;6303;51.504;6.300;2023-04-24T12:19:56;1.70;;;1.30;;
12476;SDS011;6303;51.504;6.300;2023-04-24T12:22:25;1.35;;;1.25;;
12476;SDS011;6303;51.504;6.300;2023-04-24T12:24:56;1.98;;;1.40;;
12476;SDS011;6303;51.504;6.300;2023-04-24T12:27:28;1.65;;;1.25;;
12476;SDS011;6303;51.504;6.300;2023-04-24T12:29:58;1.83;;;1.00;;
12476;SDS011;6303;51.504;6.300;2023-04-24T12:32:26;1.27;;;1.17;;
12476;SDS011;6303;51.504;6.300;2023-04-24T12:34:53;1.20;;;1.10;;
12476;SDS011;6303;51.504;6.300;2023-04-24T12:37:22;1.45;;;1.25;;
12476;SDS011;6303;51.504;6.300;2023-04-24T12:40:00;1.35;;;1.25;;
12476;SDS011;6303;51.504;6.300;2023-04-24T12:42:28;1.67;;;1.10;;
12476;SDS011;6303;51.504;6.300;2023-04-24T12:44:56;1.08;;;0.98;;
12476;SDS011;6303;51.504;6.300;2023-04-24T12:47:26;1.85;;;1.20;;
12476;SDS011;6303;51.504;6.300;2023-04-24T12:49:53;0.98;;;0.98;;
12476;SDS011;6303;51.504;6.300;2023-04-24T12:52:20;1.75;;;1.30;;
12476;SDS011;6303;51.504;6.300;2023-04-24T12:54:49;1.42;;;1.30;;
12476;SDS011;6303;51.504;6.300;2023-04-24T12:57:16;1.27;;;1.17;;
12476;SDS011;6303;51.504;6.300;2023-04-24T12:59:44;1.30;;;1.10;;
12476;SDS011;6303;51.504;6.300;2023-04-24T13:02:12;1.20;;;1.00;;
12476;SDS011;6303;51.504;6.300;2023-04-24T13:04:43;1.23;;;1.00;;
12476;SDS011;6303;51.504;6.300;2023-04-24T13:07:11;1.20;;;1.10;;
12476;SDS011;6303;51.504;6.300;2023-04-24T13:09:39;0.98;;;0.98;;
12476;SDS011;6303;51.504;6.300;2023-04-24T13:12:06;1.55;;;1.10;;
12476;SDS011;6303;51.504;6.300;2023-04-24T13:14:34;1.10;;;1.00;;
12476;SDS011;6303;51.504;6.300;2023-04-24T13:17:01;1.02;;;1.00;;
12476;SDS011;6303;51.504;6.300;2023-04-24T13:19:34;1.30;;;1.08;;
12476;SDS011;6303;51.504;6.300;2023-04-24T13:22:02;1.30;;;1.20;;
12476;SDS011;6303;51.504;6.300;2023-04-24T13:24:30;1.15;;;1.05;;
12476;SDS011;6303;51.504;6.300;2023-04-24T13:26:57;0.95;;;0.95;;
12476;SDS011;6303;51.504;6.300;2023-04-24T13:29:25;0.95;;;0.90;;
12476;SDS011;6303;51.504;6.300;2023-04-24T13:31:52;1.13;;;1.13;;
12476;SDS011;6303;51.504;6.300;2023-04-24T13:34:20;1.02;;;1.00;;
12476;SDS011;6303;51.504;6.300;2023-04-24T13:36:49;1.40;;;1.10;;
12476;SDS011;6303;51.504;6.300;2023-04-24T13:39:16;1.20;;;1.10;;
12476;SDS011;6303;51.504;6.300;2023-04-24T13:41:43;1.27;;;1.17;;
12476;SDS011;6303;51.504;6.300;2023-04-24T13:44:12;0.95;;;0.90;;
12476;SDS011;6303;51.504;6.300;2023-04-24T13:46:39;1.08;;;0.98;;
12476;SDS011;6303;51.504;6.300;2023-04-24T13:49:06;2.45;;;1.00;;
12476;SDS011;6303;51.504;6.300;2023-04-24T13:51:33;0.90;;;0.90;;
12476;SDS011;6303;51.504;6.300;2023-04-24T13:54:01;1.10;;;1.00;;
12476;SDS011;6303;51.504;6.300;2023-04-24T13:56:28;1.05;;;0.88;;
12476;SDS011;6303;51.504;6.300;2023-04-24T13:58:55;1.40;;;1.00;;
12476;SDS011;6303;51.504;6.300;2023-04-24T14:01:22;1.20;;;1.00;;
12476;SDS011;6303;51.504;6.300;2023-04-24T14:03:50;1.23;;;1.13;;
12476;SDS011;6303;51.504;6.300;2023-04-24T14:06:17;1.55;;;1.02;;
12476;SDS011;6303;51.504;6.300;2023-04-24T14:08:44;0.80;;;0.80;;
12476;SDS011;6303;51.504;6.300;2023-04-24T14:11:13;1.33;;;1.10;;
12476;SDS011;6303;51.504;6.300;2023-04-24T14:13:40;0.85;;;0.85;;
12476;SDS011;6303;51.504;6.300;2023-04-24T14:16:08;1.75;;;1.00;;
12476;SDS011;6303;51.504;6.300;2023-04-24T14:18:36;2.65;;;1.10;;
12476;SDS011;6303;51.504;6.300;2023-04-24T14:21:03;1.10;;;1.00;;
12476;SDS011;6303;51.504;6.300;2023-04-24T14:23:31;1.10;;;1.10;;
12476;SDS011;6303;51.504;6.300;2023-04-24T14:25:58;0.93;;;0.88;;
12476;SDS011;6303;51.504;6.300;2023-04-24T14:28:26;2.50;;;0.90;;
12476;SDS011;6303;51.504;6.300;2023-04-24T14:30:53;1.00;;;0.90;;
12476;SDS011;6303;51.504;6.300;2023-04-24T14:33:20;0.98;;;0.90;;
12476;SDS011;6303;51.504;6.300;2023-04-24T14:35:47;0.90;;;0.90;;
12476;SDS011;6303;51.504;6.300;2023-04-24T14:38:15;0.90;;;0.90;;
12476;SDS011;6303;51.504;6.300;2023-04-24T14:40:42;1.90;;;0.90;;
12476;SDS011;6303;51.504;6.300;2023-04-24T14:43:09;1.17;;;0.93;;
12476;SDS011;6303;51.504;6.300;2023-04-24T14:45:38;1.10;;;1.00;;
12476;SDS011;6303;51.504;6.300;2023-04-24T14:48:06;1.10;;;1.10;;
12476;SDS011;6303;51.504;6.300;2023-04-24T14:50:33;0.80;;;0.80;;
12476;SDS011;6303;51.504;6.300;2023-04-24T14:53:00;3.08;;;0.85;;
12476;SDS011;6303;51.504;6.300;2023-04-24T14:55:27;0.90;;;0.90;;
12476;SDS011;6303;51.504;6.300;2023-04-24T14:57:54;1.90;;;0.85;;
12476;SDS011;6303;51.504;6.300;2023-04-24T15:00:21;0.93;;;0.80;;
12476;SDS011;6303;51.504;6.300;2023-04-24T15:02:50;0.90;;;0.90;;
12476;SDS011;6303;51.504;6.300;2023-04-24T15:05:17;1.13;;;1.02;;
12476;SDS011;6303;51.504;6.300;2023-04-24T15:07:44;1.00;;;0.82;;
12476;SDS011;6303;51.504;6.300;2023-04-24T15:10:11;1.38;;;1.00;;
12476;SDS011;6303;51.504;6.300;2023-04-24T15:12:38;0.90;;;0.90;;
12476;SDS011;6303;51.504;6.300;2023-04-24T15:15:06;1.30;;;0.90;;
12476;SDS011;6303;51.504;6.300;2023-04-24T15:17:34;2.88;;;0.80;;
12476;SDS011;6303;51.504;6.300;2023-04-24T15:20:03;0.70;;;0.68;;
12476;SDS011;6303;51.504;6.300;2023-04-24T15:22:31;2.58;;;1.05;;